sensor_id;sensor_type;location;lat;lon;timestamp;pressure;altitude;pressure_sealevel;temperature;humidity
7990;BME280;4040;42.848;23.034;2023-01-25T00:00:15;96025.75;;;2.66;100.00
7990;BME280;4040;42.848;23.034;2023-01-25T00:02:42;96026.00;;;2.73;100.00
7990;BME280;4040;42.848;23.034;2023-01-25T00:05:10;96018.31;;;2.80;100.00
7990;BME280;4040;42.848;23.034;2023-01-25T00:07:37;96020.69;;;2.73;100.00
7990;BME280;4040;42.848;23.034;2023-01-25T00:10:06;96026.28;;;2.80;100.00
7990;BME280;4040;42.848;23.034;2023-01-25T00:12:34;96024.09;;;2.82;100.00
7990;BME280;4040;42.848;23.034;2023-01-25T00:15:01;96030.44;;;2.69;100.00
7990;BME280;4040;42.848;23.034;2023-01-25T00:17:28;96026.47;;;2.46;100.00
7990;BME280;4040;42.848;23.034;2023-01-25T00:19:56;96021.53;;;2.36;100.00
7990;BME280;4040;42.848;23.034;2023-01-25T00:22:23;96021.16;;;2.46;100.00
7990;BME280;4040;42.848;23.034;2023-01-25T00:24:50;96020.78;;;2.27;100.00
7990;BME280;4040;42.848;23.034;2023-01-25T00:27:19;96024.06;;;2.24;100.00
7990;BME280;4040;42.848;23.034;2023-01-25T00:29:46;96028.66;;;2.15;100.00
7990;BME280;4040;42.848;23.034;2023-01-25T00:32:32;96025.75;;;2.29;100.00
7990;BME280;4040;42.848;23.034;2023-01-25T00:35:03;96037.41;;;2.07;100.00
7990;BME280;4040;42.848;23.034;2023-01-25T00:37:36;96037.56;;;2.02;100.00
7990;BME280;4040;42.848;23.034;2023-01-25T00:40:04;96031.03;;;1.91;100.00
7990;BME280;4040;42.848;23.034;2023-01-25T00:42:33;96029.78;;;1.97;100.00
7990;BME280;4040;42.848;23.034;2023-01-25T00:45:00;96029.63;;;1.94;100.00
7990;BME280;4040;42.848;23.034;2023-01-25T00:47:28;96023.56;;;1.93;100.00
7990;BME280;4040;42.848;23.034;2023-01-25T00:49:55;96017.94;;;1.86;100.00
7990;BME280;4040;42.848;23.034;2023-01-25T00:52:22;96024.31;;;1.94;100.00
7990;BME280;4040;42.848;23.034;2023-01-25T00:54:49;96037.16;;;1.92;100.00
7990;BME280;4040;42.848;23.034;2023-01-25T00:57:17;96023.84;;;2.00;100.00
7990;BME280;4040;42.848;23.034;2023-01-25T00:59:45;96023.84;;;2.00;100.00
7990;BME280;4040;42.848;23.034;2023-01-25T01:02:12;96027.16;;;1.89;100.00
7990;BME280;4040;42.848;23.034;2023-01-25T01:04:40;96022.81;;;1.84;100.00
7990;BME280;4040;42.848;23.034;2023-01-25T01:07:07;96028.56;;;1.86;100.00
7990;BME280;4040;42.848;23.034;2023-01-25T01:09:34;96017.44;;;1.93;100.00
7990;BME280;4040;42.848;23.034;2023-01-25T01:12:01;96020.25;;;1.96;100.00
7990;BME280;4040;42.848;23.034;2023-01-25T01:14:28;96017.44;;;1.93;100.00
7990;BME280;4040;42.848;23.034;2023-01-25T01:16:57;96017.88;;;2.03;100.00
7990;BME280;4040;42.848;23.034;2023-01-25T01:19:24;96011.59;;;2.16;100.00
7990;BME280;4040;42.848;23.034;2023-01-25T01:21:52;96012.88;;;2.10;100.00
7990;BME280;4040;42.848;23.034;2023-01-25T01:24:19;96010.19;;;2.10;100.00
7990;BME280;4040;42.848;23.034;2023-01-25T01:26:46;96006.09;;;2.21;100.00
7990;BME280;4040;42.848;23.034;2023-01-25T01:29:13;96003.09;;;2.31;100.00
7990;BME280;4040;42.848;23.034;2023-01-25T01:31:40;96014.38;;;2.28;100.00
7990;BME280;4040;42.848;23.034;2023-01-25T01:34:11;96004.38;;;2.25;100.00
7990;BME280;4040;42.848;23.034;2023-01-25T01:36:39;96007.19;;;2.20;100.00
7990;BME280;4040;42.848;23.034;2023-01-25T01:39:06;96006.84;;;2.30;100.00
7990;BME280;4040;42.848;23.034;2023-01-25T01:41:33;96008.41;;;2.31;100.00
7990;BME280;4040;42.848;23.034;2023-01-25T01:44:01;95999.97;;;2.29;100.00
7990;BME280;4040;42.848;23.034;2023-01-25T01:46:31;96015.38;;;2.44;100.00
7990;BME280;4040;42.848;23.034;2023-01-25T01:49:02;96005.84;;;2.43;100.00
7990;BME280;4040;42.848;23.034;2023-01-25T01:51:41;96005.56;;;2.36;100.00
7990;BME280;4040;42.848;23.034;2023-01-25T01:54:13;96004.13;;;2.38;100.00
7990;BME280;4040;42.848;23.034;2023-01-25T01:56:47;96004.94;;;2.39;100.00
7990;BME280;4040;42.848;23.034;2023-01-25T01:59:17;95996.47;;;2.08;100.00
7990;BME280;4040;42.848;23.034;2023-01-25T02:01:45;95925.84;;;1.61;100.00
7990;BME280;4040;42.848;23.034;2023-01-25T02:04:13;95997.97;;;2.18;100.00
7990;BME280;4040;42.848;23.034;2023-01-25T02:06:47;95999.69;;;2.22;100.00
7990;BME280;4040;42.848;23.034;2023-01-25T02:09:21;96004.63;;;2.32;100.00
7990;BME280;4040;42.848;23.034;2023-01-25T02:11:50;95997.22;;;2.17;100.00
7990;BME280;4040;42.848;23.034;2023-01-25T02:14:18;95987.22;;;2.14;100.00
7990;BME280;4040;42.848;23.034;2023-01-25T02:16:46;96007.53;;;2.10;100.00
7990;BME280;4040;42.848;23.034;2023-01-25T02:19:18;96006.63;;;2.06;100.00
7990;BME280;4040;42.848;23.034;2023-01-25T02:21:51;96006.78;;;2.01;100.00
7990;BME280;4040;42.848;23.034;2023-01-25T02:24:24;96007.69;;;2.14;100.00
7990;BME280;4040;42.848;23.034;2023-01-25T02:26:55;96001.59;;;2.13;100.00
7990;BME280;4040;42.848;23.034;2023-01-25T02:29:23;96002.88;;;2.07;100.00
7990;BME280;4040;42.848;23.034;2023-01-25T02:31:58;95994.38;;;2.22;100.00
7990;BME280;4040;42.848;23.034;2023-01-25T02:34:25;95933.00;;;1.69;100.00
7990;BME280;4040;42.848;23.034;2023-01-25T02:36:53;96000.03;;;2.21;100.00
7990;BME280;4040;42.848;23.034;2023-01-25T02:39:20;95999.69;;;2.22;100.00
7990;BME280;4040;42.848;23.034;2023-01-25T02:41:51;95995.47;;;2.21;100.00
7990;BME280;4040;42.848;23.034;2023-01-25T02:44:22;95987.50;;;2.21;100.00
7990;BME280;4040;42.848;23.034;2023-01-25T02:46:51;95928.75;;;1.77;100.00
7990;BME280;4040;42.848;23.034;2023-01-25T02:49:18;95974.28;;;2.04;100.00
7990;BME280;4040;42.848;23.034;2023-01-25T02:51:47;95980.69;;;2.03;100.00
7990;BME280;4040;42.848;23.034;2023-01-25T02:54:16;95983.66;;;2.02;100.00
7990;BME280;4040;42.848;23.034;2023-01-25T02:56:44;95984.31;;;1.90;100.00
7990;BME280;4040;42.848;23.034;2023-01-25T02:59:11;95981.25;;;1.80;100.00
7990;BME280;4040;42.848;23.034;2023-01-25T03:01:42;95990.94;;;1.76;100.00
7990;BME280;4040;42.848;23.034;2023-01-25T03:04:09;95982.66;;;1.77;100.00
7990;BME280;4040;42.848;23.034;2023-01-25T03:06:38;95985.31;;;1.77;100.00
7990;BME280;4040;42.848;23.034;2023-01-25T03:09:07;95991.25;;;1.66;100.00
7990;BME280;4040;42.848;23.034;2023-01-25T03:11:34;95982.69;;;1.60;100.00
7990;BME280;4040;42.848;23.034;2023-01-25T03:14:02;95984.56;;;1.51;100.00
7990;BME280;4040;42.848;23.034;2023-01-25T03:16:29;95989.28;;;1.54;100.00
7990;BME280;4040;42.848;23.034;2023-01-25T03:18:58;95887.94;;;0.89;100.00
7990;BME280;4040;42.848;23.034;2023-01-25T03:21:26;95990.34;;;1.62;100.00
7990;BME280;4040;42.848;23.034;2023-01-25T03:23:58;95988.75;;;1.69;100.00
7990;BME280;4040;42.848;23.034;2023-01-25T03:26:26;95996.25;;;1.76;100.00
7990;BME280;4040;42.848;23.034;2023-01-25T03:28:54;95991.22;;;1.83;100.00
7990;BME280;4040;42.848;23.034;2023-01-25T03:31:21;95919.03;;;1.43;100.00
7990;BME280;4040;42.848;23.034;2023-01-25T03:33:49;95983.22;;;1.91;100.00
7990;BME280;4040;42.848;23.034;2023-01-25T03:36:17;95909.19;;;1.52;100.00
7990;BME280;4040;42.848;23.034;2023-01-25T03:38:45;95989.41;;;2.12;100.00
7990;BME280;4040;42.848;23.034;2023-01-25T03:41:12;95985.78;;;2.17;100.00
7990;BME280;4040;42.848;23.034;2023-01-25T03:43:39;95989.41;;;2.12;100.00
7990;BME280;4040;42.848;23.034;2023-01-25T03:46:06;95928.28;;;1.83;100.00
7990;BME280;4040;42.848;23.034;2023-01-25T03:48:34;95981.63;;;2.07;100.00
7990;BME280;4040;42.848;23.034;2023-01-25T03:51:01;95978.50;;;2.05;100.00
7990;BME280;4040;42.848;23.034;2023-01-25T03:53:30;95979.41;;;2.09;100.00
7990;BME280;4040;42.848;23.034;2023-01-25T03:55:58;95961.84;;;1.88;100.00
7990;BME280;4040;42.848;23.034;2023-01-25T03:58:26;95983.97;;;2.09;100.00
7990;BME280;4040;42.848;23.034;2023-01-25T04:00:55;95980.13;;;1.89;100.00
7990;BME280;4040;42.848;23.034;2023-01-25T04:03:23;95979.41;;;2.09;100.00
7990;BME280;4040;42.848;23.034;2023-01-25T04:05:50;95975.38;;;2.03;100.00
7990;BME280;4040;42.848;23.034;2023-01-25T04:08:18;95972.56;;;2.08;100.00
7990;BME280;4040;42.848;23.034;2023-01-25T04:10:50;95969.78;;;1.96;100.00
7990;BME280;4040;42.848;23.034;2023-01-25T04:13:18;95972.00;;;1.94;100.00
7990;BME280;4040;42.848;23.034;2023-01-25T04:15:46;95967.59;;;1.98;100.00
7990;BME280;4040;42.848;23.034;2023-01-25T04:18:14;95979.59;;;2.04;100.00
7990;BME280;4040;42.848;23.034;2023-01-25T04:20:42;95967.53;;;2.15;100.00
7990;BME280;4040;42.848;23.034;2023-01-25T04:23:10;95971.91;;;2.11;100.00
7990;BME280;4040;42.848;23.034;2023-01-25T04:25:37;95973.41;;;1.92;100.00
7990;BME280;4040;42.848;23.034;2023-01-25T04:28:06;95945.03;;;1.75;100.00
7990;BME280;4040;42.848;23.034;2023-01-25T04:30:34;95976.94;;;2.04;100.00
7990;BME280;4040;42.848;23.034;2023-01-25T04:33:04;95974.16;;;1.92;100.00
7990;BME280;4040;42.848;23.034;2023-01-25T04:35:32;95967.03;;;1.84;100.00
7990;BME280;4040;42.848;23.034;2023-01-25T04:37:59;95974.81;;;1.89;100.00
7990;BME280;4040;42.848;23.034;2023-01-25T04:40:27;95974.50;;;1.82;100.00
7990;BME280;4040;42.848;23.034;2023-01-25T04:42:55;95969.34;;;1.86;100.00
7990;BME280;4040;42.848;23.034;2023-01-25T04:45:24;95977.16;;;1.82;100.00
7990;BME280;4040;42.848;23.034;2023-01-25T04:47:55;95980.94;;;1.73;100.00
7990;BME280;4040;42.848;23.034;2023-01-25T04:50:22;95982.00;;;1.80;100.00
7990;BME280;4040;42.848;23.034;2023-01-25T04:52:49;95973.28;;;1.80;100.00
7990;BME280;4040;42.848;23.034;2023-01-25T04:55:17;95980.03;;;1.69;100.00
7990;BME280;4040;42.848;23.034;2023-01-25T04:57:44;95981.59;;;1.70;100.00
7990;BME280;4040;42.848;23.034;2023-01-25T05:00:12;95983.34;;;1.57;100.00
7990;BME280;4040;42.848;23.034;2023-01-25T05:02:41;95982.69;;;1.60;100.00
7990;BME280;4040;42.848;23.034;2023-01-25T05:05:09;95981.75;;;1.73;100.00
7990;BME280;4040;42.848;23.034;2023-01-25T05:07:36;95989.72;;;1.65;100.00
7990;BME280;4040;42.848;23.034;2023-01-25T05:10:05;95989.56;;;1.61;100.00
7990;BME280;4040;42.848;23.034;2023-01-25T05:12:32;95984.72;;;1.72;100.00
7990;BME280;4040;42.848;23.034;2023-01-25T05:14:59;95982.66;;;1.77;100.00
7990;BME280;4040;42.848;23.034;2023-01-25T05:17:27;95975.19;;;1.71;100.00
7990;BME280;4040;42.848;23.034;2023-01-25T05:19:56;95982.00;;;1.80;100.00
7990;BME280;4040;42.848;23.034;2023-01-25T05:22:23;95904.69;;;1.27;100.00
7990;BME280;4040;42.848;23.034;2023-01-25T05:24:50;95978.56;;;1.88;100.00
7990;BME280;4040;42.848;23.034;2023-01-25T05:27:19;95953.00;;;1.75;100.00
7990;BME280;4040;42.848;23.034;2023-01-25T05:29:45;95972.94;;;1.81;100.00
7990;BME280;4040;42.848;23.034;2023-01-25T05:32:14;95984.50;;;1.85;100.00
7990;BME280;4040;42.848;23.034;2023-01-25T05:34:42;95984.81;;;1.84;100.00
7990;BME280;4040;42.848;23.034;2023-01-25T05:37:13;95983.56;;;1.81;100.00
7990;BME280;4040;42.848;23.034;2023-01-25T05:39:40;95985.97;;;1.74;100.00
7990;BME280;4040;42.848;23.034;2023-01-25T05:42:10;95987.50;;;1.67;100.00
7990;BME280;4040;42.848;23.034;2023-01-25T05:44:38;95980.66;;;1.66;100.00
7990;BME280;4040;42.848;23.034;2023-01-25T05:47:05;95985.50;;;1.72;100.00
7990;BME280;4040;42.848;23.034;2023-01-25T05:49:33;95986.41;;;1.76;100.00
7990;BME280;4040;42.848;23.034;2023-01-25T05:52:00;95993.28;;;1.77;100.00
7990;BME280;4040;42.848;23.034;2023-01-25T05:54:29;96001.44;;;1.55;100.00
7990;BME280;4040;42.848;23.034;2023-01-25T05:56:56;95997.09;;;1.42;100.00
7990;BME280;4040;42.848;23.034;2023-01-25T05:59:23;96000.53;;;1.43;100.00
7990;BME280;4040;42.848;23.034;2023-01-25T06:01:51;95996.47;;;1.45;100.00
7990;BME280;4040;42.848;23.034;2023-01-25T06:04:19;95996.78;;;1.35;100.00
7990;BME280;4040;42.848;23.034;2023-01-25T06:06:46;95995.56;;;1.41;100.00
7990;BME280;4040;42.848;23.034;2023-01-25T06:09:13;95991.81;;;1.42;100.00
7990;BME280;4040;42.848;23.034;2023-01-25T06:11:43;95999.44;;;1.44;100.00
7990;BME280;4040;42.848;23.034;2023-01-25T06:14:10;96004.28;;;1.42;100.00
7990;BME280;4040;42.848;23.034;2023-01-25T06:16:38;95959.03;;;1.21;100.00
7990;BME280;4040;42.848;23.034;2023-01-25T06:19:06;96005.81;;;1.51;100.00
7990;BME280;4040;42.848;23.034;2023-01-25T06:21:34;96001.28;;;1.60;100.00
7990;BME280;4040;42.848;23.034;2023-01-25T06:24:01;96009.25;;;1.60;100.00
7990;BME280;4040;42.848;23.034;2023-01-25T06:26:29;96002.84;;;1.70;100.00
7990;BME280;4040;42.848;23.034;2023-01-25T06:28:57;95997.94;;;1.80;100.00
7990;BME280;4040;42.848;23.034;2023-01-25T06:31:25;95994.84;;;1.78;100.00
7990;BME280;4040;42.848;23.034;2023-01-25T06:33:52;95997.03;;;1.76;100.00
7990;BME280;4040;42.848;23.034;2023-01-25T06:36:20;95991.09;;;1.79;100.00
7990;BME280;4040;42.848;23.034;2023-01-25T06:38:48;95992.69;;;1.63;100.00
7990;BME280;4040;42.848;23.034;2023-01-25T06:41:16;95996.72;;;1.69;100.00
7990;BME280;4040;42.848;23.034;2023-01-25T06:43:44;96000.00;;;1.75;100.00
7990;BME280;4040;42.848;23.034;2023-01-25T06:46:13;95991.09;;;1.79;100.00
7990;BME280;4040;42.848;23.034;2023-01-25T06:48:41;95995.16;;;1.77;100.00
7990;BME280;4040;42.848;23.034;2023-01-25T06:51:09;95991.53;;;1.81;100.00
7990;BME280;4040;42.848;23.034;2023-01-25T06:53:39;95990.28;;;1.87;100.00
7990;BME280;4040;42.848;23.034;2023-01-25T06:56:09;95992.78;;;1.84;100.00
7990;BME280;4040;42.848;23.034;2023-01-25T06:58:36;95996.69;;;1.86;100.00
7990;BME280;4040;42.848;23.034;2023-01-25T07:01:06;95989.63;;;1.90;100.00
7990;BME280;4040;42.848;23.034;2023-01-25T07:03:34;95986.00;;;2.03;100.00
7990;BME280;4040;42.848;23.034;2023-01-25T07:06:03;95990.69;;;2.06;100.00
7990;BME280;4040;42.848;23.034;2023-01-25T07:08:31;95982.81;;;1.81;100.00
7990;BME280;4040;42.848;23.034;2023-01-25T07:11:00;95993.59;;;1.84;100.00
7990;BME280;4040;42.848;23.034;2023-01-25T07:13:28;95989.53;;;1.78;100.00
7990;BME280;4040;42.848;23.034;2023-01-25T07:15:57;95997.03;;;1.76;100.00
7990;BME280;4040;42.848;23.034;2023-01-25T07:18:25;95994.69;;;1.75;100.00
7990;BME280;4040;42.848;23.034;2023-01-25T07:21:02;96006.38;;;1.82;100.00
7990;BME280;4040;42.848;23.034;2023-01-25T07:23:30;96001.13;;;1.65;100.00
7990;BME280;4040;42.848;23.034;2023-01-25T07:25:59;96004.88;;;1.64;100.00
7990;BME280;4040;42.848;23.034;2023-01-25T07:28:27;96005.16;;;1.71;100.00
7990;BME280;4040;42.848;23.034;2023-01-25T07:30:54;96010.63;;;1.83;100.00
7990;BME280;4040;42.848;23.034;2023-01-25T07:33:22;96013.09;;;1.88;100.00
7990;BME280;4040;42.848;23.034;2023-01-25T07:35:49;96010.97;;;1.73;100.00
7990;BME280;4040;42.848;23.034;2023-01-25T07:38:18;96013.53;;;1.90;100.00
7990;BME280;4040;42.848;23.034;2023-01-25T07:40:50;96022.72;;;2.10;100.00
7990;BME280;4040;42.848;23.034;2023-01-25T07:43:18;96013.41;;;2.24;100.00
7990;BME280;4040;42.848;23.034;2023-01-25T07:45:45;95999.06;;;2.25;100.00
7990;BME280;4040;42.848;23.034;2023-01-25T07:48:14;96014.00;;;2.38;100.00
7990;BME280;4040;42.848;23.034;2023-01-25T07:50:42;96011.75;;;2.20;100.00
7990;BME280;4040;42.848;23.034;2023-01-25T07:53:11;96017.81;;;2.20;100.00
7990;BME280;4040;42.848;23.034;2023-01-25T07:55:40;96012.97;;;2.22;100.00
7990;BME280;4040;42.848;23.034;2023-01-25T07:58:07;96011.88;;;2.23;100.00
7990;BME280;4040;42.848;23.034;2023-01-25T08:00:36;96011.06;;;2.31;100.00
7990;BME280;4040;42.848;23.034;2023-01-25T08:03:03;95983.13;;;2.25;100.00
7990;BME280;4040;42.848;23.034;2023-01-25T08:05:32;96010.16;;;2.56;100.00
7990;BME280;4040;42.848;23.034;2023-01-25T08:08:00;95990.16;;;2.50;100.00
7990;BME280;4040;42.848;23.034;2023-01-25T08:10:27;95995.56;;;2.33;100.00
7990;BME280;4040;42.848;23.034;2023-01-25T08:12:56;95990.25;;;2.33;100.00
7990;BME280;4040;42.848;23.034;2023-01-25T08:15:23;95987.59;;;2.33;100.00
7990;BME280;4040;42.848;23.034;2023-01-25T08:17:50;95988.97;;;2.39;100.00
7990;BME280;4040;42.848;23.034;2023-01-25T08:20:18;95996.00;;;2.43;100.00
7990;BME280;4040;42.848;23.034;2023-01-25T08:22:47;95994.91;;;2.65;100.00
7990;BME280;4040;42.848;23.034;2023-01-25T08:25:14;95988.13;;;2.76;100.00
7990;BME280;4040;42.848;23.034;2023-01-25T08:27:41;95916.19;;;2.23;100.00
7990;BME280;4040;42.848;23.034;2023-01-25T08:30:11;95955.41;;;2.55;100.00
7990;BME280;4040;42.848;23.034;2023-01-25T08:32:38;95984.25;;;2.94;100.00
7990;BME280;4040;42.848;23.034;2023-01-25T08:35:07;95988.91;;;2.97;100.00
7990;BME280;4040;42.848;23.034;2023-01-25T08:37:34;95974.13;;;2.87;100.00
7990;BME280;4040;42.848;23.034;2023-01-25T08:40:01;96002.69;;;2.99;100.00
7990;BME280;4040;42.848;23.034;2023-01-25T08:42:28;96004.88;;;2.97;100.00
7990;BME280;4040;42.848;23.034;2023-01-25T08:44:59;95996.19;;;2.88;100.00
7990;BME280;4040;42.848;23.034;2023-01-25T08:47:29;95998.38;;;2.86;100.00
7990;BME280;4040;42.848;23.034;2023-01-25T08:49:56;95932.94;;;2.44;100.00
7990;BME280;4040;42.848;23.034;2023-01-25T08:52:23;96001.19;;;2.89;100.00
7990;BME280;4040;42.848;23.034;2023-01-25T08:54:50;95998.53;;;3.10;100.00
7990;BME280;4040;42.848;23.034;2023-01-25T08:57:18;96000.22;;;2.94;100.00
7990;BME280;4040;42.848;23.034;2023-01-25T08:59:45;95988.28;;;3.00;100.00
7990;BME280;4040;42.848;23.034;2023-01-25T09:02:13;95985.03;;;3.15;100.00
7990;BME280;4040;42.848;23.034;2023-01-25T09:04:41;95986.84;;;3.23;100.00
7990;BME280;4040;42.848;23.034;2023-01-25T09:07:09;95983.97;;;3.28;100.00
7990;BME280;4040;42.848;23.034;2023-01-25T09:09:36;95979.97;;;3.22;100.00
7990;BME280;4040;42.848;23.034;2023-01-25T09:12:04;95985.28;;;3.22;100.00
7990;BME280;4040;42.848;23.034;2023-01-25T09:14:31;95986.19;;;3.26;100.00
7990;BME280;4040;42.848;23.034;2023-01-25T09:16:58;95985.03;;;3.35;100.00
7990;BME280;4040;42.848;23.034;2023-01-25T09:19:25;95982.88;;;3.29;100.00
7990;BME280;4040;42.848;23.034;2023-01-25T09:21:54;95972.69;;;3.31;100.00
7990;BME280;4040;42.848;23.034;2023-01-25T09:24:21;95964.50;;;3.36;100.00
7990;BME280;4040;42.848;23.034;2023-01-25T09:26:49;95963.19;;;3.42;100.00
7990;BME280;4040;42.848;23.034;2023-01-25T09:29:16;95955.69;;;3.56;100.00
7990;BME280;4040;42.848;23.034;2023-01-25T09:31:43;95961.66;;;3.53;100.00
7990;BME280;4040;42.848;23.034;2023-01-25T09:34:11;95949.78;;;3.50;100.00
7990;BME280;4040;42.848;23.034;2023-01-25T09:36:39;95954.56;;;3.57;100.00
7990;BME280;4040;42.848;23.034;2023-01-25T09:39:08;95959.00;;;3.53;100.00
7990;BME280;4040;42.848;23.034;2023-01-25T09:42:04;95950.16;;;3.61;100.00
7990;BME280;4040;42.848;23.034;2023-01-25T09:47:26;95935.63;;;3.38;100.00
7990;BME280;4040;42.848;23.034;2023-01-25T09:50:12;95936.03;;;3.28;100.00
7990;BME280;4040;42.848;23.034;2023-01-25T09:53:01;95892.41;;;3.08;100.00
7990;BME280;4040;42.848;23.034;2023-01-25T09:55:33;95924.25;;;3.49;100.00
7990;BME280;4040;42.848;23.034;2023-01-25T09:58:01;95922.41;;;3.62;100.00
7990;BME280;4040;42.848;23.034;2023-01-25T10:00:32;95926.00;;;3.90;100.00
7990;BME280;4040;42.848;23.034;2023-01-25T10:03:02;95916.41;;;3.65;100.00
7990;BME280;4040;42.848;23.034;2023-01-25T10:05:42;95912.66;;;3.78;100.00
7990;BME280;4040;42.848;23.034;2023-01-25T10:08:17;95921.22;;;3.83;100.00
7990;BME280;4040;42.848;23.034;2023-01-25T10:10:57;95898.66;;;3.69;100.00
7990;BME280;4040;42.848;23.034;2023-01-25T10:13:27;95887.13;;;3.77;100.00
7990;BME280;4040;42.848;23.034;2023-01-25T10:16:01;95893.13;;;3.86;100.00
7990;BME280;4040;42.848;23.034;2023-01-25T10:18:33;95903.78;;;4.10;100.00
7990;BME280;4040;42.848;23.034;2023-01-25T10:21:06;95901.00;;;3.94;100.00
7990;BME280;4040;42.848;23.034;2023-01-25T10:23:50;95885.38;;;4.05;100.00
7990;BME280;4040;42.848;23.034;2023-01-25T10:26:28;95884.69;;;3.84;100.00
7990;BME280;4040;42.848;23.034;2023-01-25T10:29:02;95885.13;;;3.98;100.00
7990;BME280;4040;42.848;23.034;2023-01-25T10:31:39;95875.91;;;3.95;100.00
7990;BME280;4040;42.848;23.034;2023-01-25T10:34:15;95817.41;;;3.51;100.00
7990;BME280;4040;42.848;23.034;2023-01-25T10:36:45;95864.06;;;3.81;100.00
7990;BME280;4040;42.848;23.034;2023-01-25T10:39:14;95861.59;;;4.00;100.00
7990;BME280;4040;42.848;23.034;2023-01-25T10:41:47;95789.78;;;3.67;100.00
7990;BME280;4040;42.848;23.034;2023-01-25T10:44:15;95854.72;;;3.99;100.00
7990;BME280;4040;42.848;23.034;2023-01-25T10:46:55;95790.13;;;3.54;100.00
7990;BME280;4040;42.848;23.034;2023-01-25T10:49:26;95859.41;;;4.02;100.00
7990;BME280;4040;42.848;23.034;2023-01-25T10:51:55;95851.16;;;3.95;100.00
7990;BME280;4040;42.848;23.034;2023-01-25T10:54:23;95855.16;;;4.13;100.00
7990;BME280;4040;42.848;23.034;2023-01-25T10:56:52;95849.31;;;4.47;100.00
7990;BME280;4040;42.848;23.034;2023-01-25T10:59:22;95770.72;;;4.17;100.00
7990;BME280;4040;42.848;23.034;2023-01-25T11:01:51;95772.53;;;4.13;100.00
7990;BME280;4040;42.848;23.034;2023-01-25T11:04:26;95842.94;;;4.63;100.00
7990;BME280;4040;42.848;23.034;2023-01-25T11:06:54;95764.81;;;3.72;100.00
7990;BME280;4040;42.848;23.034;2023-01-25T11:09:33;95726.41;;;3.49;100.00
7990;BME280;4040;42.848;23.034;2023-01-25T11:12:03;95823.81;;;4.34;100.00
7990;BME280;4040;42.848;23.034;2023-01-25T11:14:32;95815.09;;;4.49;100.00
7990;BME280;4040;42.848;23.034;2023-01-25T11:17:01;95822.63;;;4.59;100.00
7990;BME280;4040;42.848;23.034;2023-01-25T11:19:34;95830.16;;;4.69;100.00
7990;BME280;4040;42.848;23.034;2023-01-25T11:22:03;95819.47;;;4.69;100.00
7990;BME280;4040;42.848;23.034;2023-01-25T11:24:31;95822.06;;;4.53;100.00
7990;BME280;4040;42.848;23.034;2023-01-25T11:27:17;95815.69;;;4.30;100.00
7990;BME280;4040;42.848;23.034;2023-01-25T11:29:45;95814.47;;;4.28;100.00
7990;BME280;4040;42.848;23.034;2023-01-25T11:32:18;95795.28;;;4.50;100.00
7990;BME280;4040;42.848;23.034;2023-01-25T11:34:50;95802.22;;;4.93;100.00
7990;BME280;4040;42.848;23.034;2023-01-25T11:37:34;95798.91;;;4.96;100.00
7990;BME280;4040;42.848;23.034;2023-01-25T11:40:14;95797.72;;;5.09;100.00
7990;BME280;4040;42.848;23.034;2023-01-25T11:42:58;95795.97;;;5.01;100.00
7990;BME280;4040;42.848;23.034;2023-01-25T11:45:50;95789.28;;;4.53;100.00
7990;BME280;4040;42.848;23.034;2023-01-25T11:48:59;95783.41;;;4.47;100.00
7990;BME280;4040;42.848;23.034;2023-01-25T11:51:33;95789.00;;;4.42;100.00
7990;BME280;4040;42.848;23.034;2023-01-25T11:54:14;95779.88;;;4.43;100.00
7990;BME280;4040;42.848;23.034;2023-01-25T11:56:54;95772.88;;;4.39;100.00
7990;BME280;4040;42.848;23.034;2023-01-25T11:59:47;95768.72;;;4.53;100.00
7990;BME280;4040;42.848;23.034;2023-01-25T12:02:51;95755.94;;;4.59;100.00
7990;BME280;4040;42.848;23.034;2023-01-25T12:05:29;95759.16;;;4.80;100.00
7990;BME280;4040;42.848;23.034;2023-01-25T12:08:10;95755.75;;;5.10;100.00
7990;BME280;4040;42.848;23.034;2023-01-25T12:10:49;95749.31;;;4.95;100.00
7990;BME280;4040;42.848;23.034;2023-01-25T12:13:25;95741.97;;;4.92;100.00
7990;BME280;4040;42.848;23.034;2023-01-25T12:16:14;95736.09;;;4.87;100.00
7990;BME280;4040;42.848;23.034;2023-01-25T12:19:04;95737.03;;;4.94;100.00
7990;BME280;4040;42.848;23.034;2023-01-25T12:21:49;95733.44;;;5.02;100.00
7990;BME280;4040;42.848;23.034;2023-01-25T12:24:30;95722.97;;;5.09;100.00
7990;BME280;4040;42.848;23.034;2023-01-25T12:27:10;95722.97;;;5.09;100.00
7990;BME280;4040;42.848;23.034;2023-01-25T12:29:42;95714.94;;;5.09;100.00
7990;BME280;4040;42.848;23.034;2023-01-25T12:32:16;95713.81;;;5.10;100.00
7990;BME280;4040;42.848;23.034;2023-01-25T12:34:51;95709.78;;;5.16;100.00
7990;BME280;4040;42.848;23.034;2023-01-25T12:37:27;95717.53;;;5.06;100.00
7990;BME280;4040;42.848;23.034;2023-01-25T12:40:00;95717.34;;;4.99;100.00
7990;BME280;4040;42.848;23.034;2023-01-25T12:42:33;95710.22;;;5.03;100.00
7990;BME280;4040;42.848;23.034;2023-01-25T12:45:05;95704.50;;;5.04;100.00
7990;BME280;4040;42.848;23.034;2023-01-25T12:47:41;95696.84;;;5.03;100.00
7990;BME280;4040;42.848;23.034;2023-01-25T12:50:14;95657.28;;;4.47;100.00
7990;BME280;4040;42.848;23.034;2023-01-25T12:52:46;95672.78;;;4.57;100.00
7990;BME280;4040;42.848;23.034;2023-01-25T12:55:16;95700.13;;;4.81;100.00
7990;BME280;4040;42.848;23.034;2023-01-25T12:57:51;95687.81;;;4.77;100.00
7990;BME280;4040;42.848;23.034;2023-01-25T13:00:26;95646.44;;;4.40;100.00
7990;BME280;4040;42.848;23.034;2023-01-25T13:03:16;95714.34;;;4.58;100.00
7990;BME280;4040;42.848;23.034;2023-01-25T13:05:48;95695.78;;;4.61;100.00
7990;BME280;4040;42.848;23.034;2023-01-25T13:08:33;95687.34;;;4.59;100.00
7990;BME280;4040;42.848;23.034;2023-01-25T13:11:11;95690.19;;;4.82;100.00
7990;BME280;4040;42.848;23.034;2023-01-25T13:13:40;95696.94;;;4.76;100.00
7990;BME280;4040;42.848;23.034;2023-01-25T13:16:38;95681.16;;;4.86;100.00
7990;BME280;4040;42.848;23.034;2023-01-25T13:19:20;95694.00;;;4.81;100.00
7990;BME280;4040;42.848;23.034;2023-01-25T13:21:48;95677.13;;;4.77;100.00
7990;BME280;4040;42.848;23.034;2023-01-25T13:24:22;95665.72;;;4.49;100.00
7990;BME280;4040;42.848;23.034;2023-01-25T13:27:03;95621.66;;;4.12;100.00
7990;BME280;4040;42.848;23.034;2023-01-25T13:29:45;95676.59;;;4.56;100.00